Crystal Falls, MI (49920)

7:41 AM CST on February 08, 2016 (GMT -0600)
Bates Tower | | Change Station
CLOSE
Current Station
Personal Weather Station
Location: Iron River, MI
Elevation: 1765 ft
Nearby Weather Stations

Elev 1765 ft 46.10 °N, 88.54 °W | Updated 4 minutes ago

Overcast
Overcast
21.8 °F
Feels Like 22 °F
N
2.0
Wind Variable Wind from North
Gusts 12.0 mph

Today
High -- | Low -- °F
--% Chance of Precip.
Yesterday
High -- | Low -- °F
Precip. -- in
Pressure 29.57 in
Visibility 0.5 miles
Clouds Few 700 ft
Mostly Cloudy 1200 ft
Overcast 1600 ft
Windchill 22 °F
Dew Point 20 °F
Humidity 93%
Rainfall 0.00 in
Snow Depth Not available.
7:07 AM 5:08 PM
Waning Crescent, 0% visible
SPECI KIMT 081336Z AUTO 35013KT 1/2SM -SN FZFG FEW007 BKN012 OVC016 M01/M03 A2957 RMK AO2 P0000 T10111033 TSNO
Pressure 29.57 in
Visibility 0.5 miles
Clouds Few 700 ft
Mostly Cloudy 1200 ft
Overcast 1600 ft
Windchill 22 °F
Dew Point 20 °F
Humidity 93%
Rainfall 0.00 in
Snow Depth Not available.
7:07 AM 5:08 PM
Waning Crescent, 0% visible
SPECI KIMT 081336Z AUTO 35013KT 1/2SM -SN FZFG FEW007 BKN012 OVC016 M01/M03 A2957 RMK AO2 P0000 T10111033 TSNO

10-Day Weather Forecast

Almanac

Astronomy

Feb. 08, 2016 Rise Set
Actual Time
Civil Twilight
Nautical Twilight
Astronomical Twilight
Moon
Length of Visible Light
Length of Day
Tomorrow will be .
, % of the Moon is Illuminated

Today's Extremes

State Highs State Lows

Community

WunderPhotos

Upload Photos

1,891,437 photos uploaded!

WunderBlog® & News

Nearby

Air Quality

  Air Quality AQ Index Pollutant
Not available.

Snow Depth

Station Depth Elevation

Earthquake Activity

City Distance Mag. Time & Date
Minimum magnitude displayed is 2.5.

Coastal Water Temperatures

Place Temperature

Stations

Nearby Weather Stations

Station Location Temp. Windchill Dew Point Humidity Wind Precip. Elev Updated Type
                   

Watches & Warnings

There are currently no watches in effect.